Aegean Orion — SVA2487 — position and weather

sailwx.info

Track history (hours):
 
Tides and Currents Weather Stations Pressure Air Temp Water Temp Dewpoint Dewpoint Depression Visibility Wind Speed Wind Dir Waves Ship Positions

Aegean Orion

Last reported at 2016-May-30 15:08 UTC. Time now 2016-May-31 10:02 UTC.
Position N 38°02' E 023°32'.

; draft 2.4 m.

Type: Ship. MMSI: 239550200.

Date/timePositionNaut miles runAvg speedWind from/ knotsBaromVisibWave heightAir tempDewpointWater temp
2016-May-30 15:08N 38°02' E 023°32'4 6.3
2016-May-30 14:33N 37°59' E 023°33'5 4.9
2016-May-30 13:33N 37°57' E 023°38'0 0.0
2016-May-30 12:33N 37°57' E 023°38'2 2.0
2016-May-30 11:34N 37°57' E 023°36'2 1.7
2016-May-30 10:33N 37°57' E 023°34'0 0.0
2016-May-30 09:34N 37°57' E 023°34'0 0.0
2016-May-30 08:33N 37°57' E 023°34'0 0.0
2016-May-30 07:34N 37°57' E 023°34'0 0.0
2016-May-30 06:33N 37°57' E 023°34'0 0.0
2016-May-30 05:33N 37°57' E 023°34'0 0.0
2016-May-30 04:33N 37°57' E 023°34'0 0.0
2016-May-30 03:33N 37°57' E 023°34'0 0.0
2016-May-30 02:34N 37°57' E 023°34'0 0.0
2016-May-30 01:33N 37°57' E 023°34'0 0.0
2016-May-30 00:34N 37°57' E 023°34'1 0.9
2016-May-29 23:33N 37°57' E 023°35'3 2.7
2016-May-29 22:33N 37°57' E 023°38'0 0.0
2016-May-29 21:33N 37°57' E 023°38'0 0.3
2016-May-29 20:33N 37°57' E 023°38'3 3.3
2016-May-29 19:34N 37°57' E 023°34'0 0.0
2016-May-29 18:34N 37°57' E 023°34'0 0.0
2016-May-29 17:33N 37°57' E 023°34'5 5.2
2016-May-29 16:33N 38°02' E 023°32'  
2016-May-27 10:28N 38°02' E 023°32'1 1.1
2016-May-27 09:33N 38°02' E 023°31'0 0.0
2016-May-27 08:33N 38°02' E 023°31'0 0.0
2016-May-27 07:33N 38°02' E 023°31'0 0.0
2016-May-27 06:33N 38°02' E 023°31'0 0.0
2016-May-27 05:33N 38°02' E 023°31'0 0.3
2016-May-27 04:34N 38°02' E 023°31'4 3.5
2016-May-27 03:33N 37°59' E 023°33'2 1.8
2016-May-27 02:33N 37°57' E 023°34'0 0.0
2016-May-27 01:33N 37°57' E 023°34'0 0.0
2016-May-27 00:33N 37°57' E 023°34'0 0.0
2016-May-26 23:34N 37°57' E 023°34'3 3.5
2016-May-26 22:33N 37°57' E 023°38'0 0.0
2016-May-26 21:33N 37°57' E 023°38'0 0.0
2016-May-26 20:33N 37°57' E 023°38'4 3.5
2016-May-26 19:33N 37°57' E 023°34'0 0.0
2016-May-26 18:33N 37°57' E 023°34'0 0.0
2016-May-26 17:33N 37°57' E 023°34'0 0.0
2016-May-26 16:33N 37°57' E 023°34'0 0.0
2016-May-26 15:33N 37°57' E 023°34'0 0.0
2016-May-26 14:33N 37°57' E 023°34'0 0.1
2016-May-26 13:33N 37°57' E 023°34'0 0.0
2016-May-26 12:33N 37°57' E 023°34'0 0.0
2016-May-26 11:33N 37°57' E 023°34'0 0.0
2016-May-26 10:33N 37°57' E 023°34'0 0.4
2016-May-26 09:33N 37°57' E 023°35'2 2.3
2016-May-26 08:33N 37°56' E 023°37'0 0.0
2016-May-26 07:33N 37°56' E 023°37'1 0.6
2016-May-26 06:34N 37°56' E 023°37'6 6.5
2016-May-26 05:33N 38°02' E 023°32'1 0.0
2016-May-25 09:19N 38°02' E 023°32'2 2.6
2016-May-25 08:33N 38°02' E 023°34'1 0.7
2016-May-25 07:33N 38°02' E 023°35'0 0.0
2016-May-25 06:33N 38°02' E 023°35'0 0.0
2016-May-25 05:33N 38°02' E 023°35'3 0.1
2016-May-24 05:26N 38°02' E 023°32'3 3.0
2016-May-24 04:33N 37°60' E 023°33'3 2.7
2016-May-24 03:34N 37°57' E 023°34'0 0.0
2016-May-24 02:34N 37°57' E 023°34'0 0.0
2016-May-24 01:34N 37°57' E 023°34'0 0.0
2016-May-24 00:33N 37°57' E 023°34'0 0.0
2016-May-23 23:33N 37°57' E 023°34'3 3.2
2016-May-23 22:33N 37°57' E 023°38'0 0.0
2016-May-23 21:33N 37°57' E 023°38'1 1.1
2016-May-23 20:34N 37°56' E 023°37'3 2.7
2016-May-23 19:33N 37°57' E 023°34'0 0.0
2016-May-23 18:33N 37°57' E 023°34'0 0.0
2016-May-23 17:34N 37°57' E 023°34'0 0.0
2016-May-23 16:33N 37°57' E 023°34'1 1.4
2016-May-23 15:33N 37°57' E 023°36'2 1.9
2016-May-23 14:33N 37°57' E 023°38'0 0.0
2016-May-23 13:33N 37°57' E 023°38'0 0.1
2016-May-23 12:34N 37°57' E 023°38'0 0.0
2016-May-23 11:33N 37°57' E 023°38'4 4.2
2016-May-23 10:33N 37°57' E 023°33'5 4.9
2016-May-23 09:33N 38°02' E 023°35'0 0.0
2016-May-23 08:34N 38°02' E 023°35'0 0.0
2016-May-23 07:34N 38°02' E 023°35'0 0.0
2016-May-23 06:34N 38°02' E 023°35'0 0.0
2016-May-23 05:33N 38°02' E 023°35'0 0.0
2016-May-23 04:33N 38°02' E 023°35'3 0.1
2016-May-21 04:17N 38°02' E 023°32'5 6.6
2016-May-21 03:34N 37°58' E 023°33'1 1.1
2016-May-21 02:33N 37°57' E 023°34'0 0.0
2016-May-21 01:33N 37°57' E 023°34'0 0.0
2016-May-21 00:33N 37°57' E 023°34'0 0.0
2016-May-20 23:33N 37°57' E 023°34'3 3.3
2016-May-20 22:33N 37°57' E 023°38'0 0.0
2016-May-20 21:33N 37°57' E 023°38'0 0.0
2016-May-20 20:33N 37°57' E 023°38'0 0.0
2016-May-20 19:33N 37°57' E 023°38'0 0.0
2016-May-20 18:33N 37°57' E 023°38'0 0.0
2016-May-20 17:33N 37°57' E 023°38'3 3.4
2016-May-20 16:33N 37°57' E 023°34'5 5.3
2016-May-20 15:33N 38°02' E 023°32'  
Track history (hours):
 
Tides and Currents Weather Stations Pressure Air Temp Water Temp Dewpoint Dewpoint Depression Visibility Wind Speed Wind Dir Waves Ship Positions

Aegean Orion

Last reported at 2016-May-30 15:08 UTC. Time now 2016-May-31 10:02 UTC.
Position N 38°02' E 023°32'.

; draft 2.4 m.

Type: Ship. MMSI: 239550200.

Date/timePositionNaut miles runAvg speedWind from/ knotsBaromVisibWave heightAir tempDewpointWater temp
2016-May-30 15:08N 38°02' E 023°32'4 6.3
2016-May-30 14:33N 37°59' E 023°33'5 4.9
2016-May-30 13:33N 37°57' E 023°38'0 0.0
2016-May-30 12:33N 37°57' E 023°38'2 2.0
2016-May-30 11:34N 37°57' E 023°36'2 1.7
2016-May-30 10:33N 37°57' E 023°34'0 0.0
2016-May-30 09:34N 37°57' E 023°34'0 0.0
2016-May-30 08:33N 37°57' E 023°34'0 0.0
2016-May-30 07:34N 37°57' E 023°34'0 0.0
2016-May-30 06:33N 37°57' E 023°34'0 0.0
2016-May-30 05:33N 37°57' E 023°34'0 0.0
2016-May-30 04:33N 37°57' E 023°34'0 0.0
2016-May-30 03:33N 37°57' E 023°34'0 0.0
2016-May-30 02:34N 37°57' E 023°34'0 0.0
2016-May-30 01:33N 37°57' E 023°34'0 0.0
2016-May-30 00:34N 37°57' E 023°34'1 0.9
2016-May-29 23:33N 37°57' E 023°35'3 2.7
2016-May-29 22:33N 37°57' E 023°38'0 0.0
2016-May-29 21:33N 37°57' E 023°38'0 0.3
2016-May-29 20:33N 37°57' E 023°38'3 3.3
2016-May-29 19:34N 37°57' E 023°34'0 0.0
2016-May-29 18:34N 37°57' E 023°34'0 0.0
2016-May-29 17:33N 37°57' E 023°34'5 5.2
2016-May-29 16:33N 38°02' E 023°32'  
2016-May-27 10:28N 38°02' E 023°32'1 1.1
2016-May-27 09:33N 38°02' E 023°31'0 0.0
2016-May-27 08:33N 38°02' E 023°31'0 0.0
2016-May-27 07:33N 38°02' E 023°31'0 0.0
2016-May-27 06:33N 38°02' E 023°31'0 0.0
2016-May-27 05:33N 38°02' E 023°31'0 0.3
2016-May-27 04:34N 38°02' E 023°31'4 3.5
2016-May-27 03:33N 37°59' E 023°33'2 1.8
2016-May-27 02:33N 37°57' E 023°34'0 0.0
2016-May-27 01:33N 37°57' E 023°34'0 0.0
2016-May-27 00:33N 37°57' E 023°34'0 0.0
2016-May-26 23:34N 37°57' E 023°34'3 3.5
2016-May-26 22:33N 37°57' E 023°38'0 0.0
2016-May-26 21:33N 37°57' E 023°38'0 0.0
2016-May-26 20:33N 37°57' E 023°38'4 3.5
2016-May-26 19:33N 37°57' E 023°34'0 0.0
2016-May-26 18:33N 37°57' E 023°34'0 0.0
2016-May-26 17:33N 37°57' E 023°34'0 0.0
2016-May-26 16:33N 37°57' E 023°34'0 0.0
2016-May-26 15:33N 37°57' E 023°34'0 0.0
2016-May-26 14:33N 37°57' E 023°34'0 0.1
2016-May-26 13:33N 37°57' E 023°34'0 0.0
2016-May-26 12:33N 37°57' E 023°34'0 0.0
2016-May-26 11:33N 37°57' E 023°34'0 0.0
2016-May-26 10:33N 37°57' E 023°34'0 0.4
2016-May-26 09:33N 37°57' E 023°35'2 2.3
2016-May-26 08:33N 37°56' E 023°37'0 0.0
2016-May-26 07:33N 37°56' E 023°37'1 0.6
2016-May-26 06:34N 37°56' E 023°37'6 6.5
2016-May-26 05:33N 38°02' E 023°32'1 0.0
2016-May-25 09:19N 38°02' E 023°32'2 2.6
2016-May-25 08:33N 38°02' E 023°34'1 0.7
2016-May-25 07:33N 38°02' E 023°35'0 0.0
2016-May-25 06:33N 38°02' E 023°35'0 0.0
2016-May-25 05:33N 38°02' E 023°35'3 0.1
2016-May-24 05:26N 38°02' E 023°32'3 3.0
2016-May-24 04:33N 37°60' E 023°33'3 2.7
2016-May-24 03:34N 37°57' E 023°34'0 0.0
2016-May-24 02:34N 37°57' E 023°34'0 0.0
2016-May-24 01:34N 37°57' E 023°34'0 0.0
2016-May-24 00:33N 37°57' E 023°34'0 0.0
2016-May-23 23:33N 37°57' E 023°34'3 3.2
2016-May-23 22:33N 37°57' E 023°38'0 0.0
2016-May-23 21:33N 37°57' E 023°38'1 1.1
2016-May-23 20:34N 37°56' E 023°37'3 2.7
2016-May-23 19:33N 37°57' E 023°34'0 0.0
2016-May-23 18:33N 37°57' E 023°34'0 0.0
2016-May-23 17:34N 37°57' E 023°34'0 0.0
2016-May-23 16:33N 37°57' E 023°34'1 1.4
2016-May-23 15:33N 37°57' E 023°36'2 1.9
2016-May-23 14:33N 37°57' E 023°38'0 0.0
2016-May-23 13:33N 37°57' E 023°38'0 0.1
2016-May-23 12:34N 37°57' E 023°38'0 0.0
2016-May-23 11:33N 37°57' E 023°38'4 4.2
2016-May-23 10:33N 37°57' E 023°33'5 4.9
2016-May-23 09:33N 38°02' E 023°35'0 0.0
2016-May-23 08:34N 38°02' E 023°35'0 0.0
2016-May-23 07:34N 38°02' E 023°35'0 0.0
2016-May-23 06:34N 38°02' E 023°35'0 0.0
2016-May-23 05:33N 38°02' E 023°35'0 0.0
2016-May-23 04:33N 38°02' E 023°35'3 0.1
2016-May-21 04:17N 38°02' E 023°32'5 6.6
2016-May-21 03:34N 37°58' E 023°33'1 1.1
2016-May-21 02:33N 37°57' E 023°34'0 0.0
2016-May-21 01:33N 37°57' E 023°34'0 0.0
2016-May-21 00:33N 37°57' E 023°34'0 0.0
2016-May-20 23:33N 37°57' E 023°34'3 3.3
2016-May-20 22:33N 37°57' E 023°38'0 0.0
2016-May-20 21:33N 37°57' E 023°38'0 0.0
2016-May-20 20:33N 37°57' E 023°38'0 0.0
2016-May-20 19:33N 37°57' E 023°38'0 0.0
2016-May-20 18:33N 37°57' E 023°38'0 0.0
2016-May-20 17:33N 37°57' E 023°38'3 3.4
2016-May-20 16:33N 37°57' E 023°34'5 5.3
2016-May-20 15:33N 38°02' E 023°32'  

Dump ship's entire track history